Time;durP1;ratioP1;P1;durP2;ratioP2;P2;SDS_P1;SDS_P2;PMS_P1;PMS_P2;Temp;Humidity;BMP_temperature;BMP_pressure;BME280_temperature;BME280_humidity;BME280_pressure;Samples;Min_cycle;Max_cycle;Signal;HPM_P1;HPM_P2
2021/10/15 13:22:34;;;;;;;37.23;3.33;;;20.90;51.70;;;;;;1890253;73;22888;-32
2021/10/15 13:38:31;;;;;;;12.82;2.98;;;22.90;43.90;;;;;;1857704;76;21035;-33
2021/10/15 13:41:09;;;;;;;13.03;3.00;;;22.90;43.50;;;;;;1883184;76;21077;-31
2021/10/15 13:51:48;;;;;;;9.70;3.05;;;23.20;41.90;;;;;;1849350;76;21124;-32
2021/10/15 13:54:16;;;;;;;13.75;3.10;;;23.30;42.20;;;;;;1856392;75;21225;-32
2021/10/15 13:56:44;;;;;;;13.50;2.77;;;23.40;42.10;;;;;;1883033;76;21139;-34
2021/10/15 13:59:20;;;;;;;8.70;3.00;;;23.40;41.90;;;;;;1882983;76;21610;-31
2021/10/15 14:01:58;;;;;;;11.97;3.12;;;23.40;42.20;;;;;;1879593;76;21106;-32
2021/10/15 14:04:30;;;;;;;6.62;2.65;;;23.50;42.30;;;;;;1883189;76;21097;-32
2021/10/15 14:06:57;;;;;;;11.18;2.75;;;23.50;42.20;;;;;;1865347;76;21211;-33
2021/10/15 14:09:24;;;;;;;14.07;3.08;;;23.50;41.80;;;;;;1851714;77;21509;-33
2021/10/15 14:11:53;;;;;;;10.72;2.98;;;23.50;41.70;;;;;;1851484;77;21069;-32
2021/10/15 14:14:21;;;;;;;9.10;2.90;;;23.70;42.00;;;;;;1851632;77;21538;-33
2021/10/15 14:16:48;;;;;;;11.97;2.80;;;23.60;41.90;;;;;;1851542;77;21538;-33
2021/10/15 14:19:16;;;;;;;14.05;2.72;;;23.70;41.40;;;;;;1851577;77;21607;-33
2021/10/15 14:21:43;;;;;;;18.15;2.83;;;23.70;41.30;;;;;;1851416;77;21461;-33
2021/10/15 14:24:11;;;;;;;12.55;2.77;;;23.70;41.10;;;;;;1851737;77;21502;-33
2021/10/15 14:26:38;;;;;;;12.07;3.05;;;23.70;41.00;;;;;;1851546;77;21168;-32
2021/10/15 14:29:05;;;;;;;10.10;2.12;;;23.80;41.00;;;;;;1851579;77;21084;-33
2021/10/15 14:31:33;;;;;;;14.25;4.03;;;23.80;40.90;;;;;;1851476;77;21593;-34
2021/10/15 14:34:01;;;;;;;12.03;3.05;;;23.80;40.80;;;;;;1850823;77;21061;-32
2021/10/15 14:36:29;;;;;;;14.25;3.12;;;23.80;40.50;;;;;;1850941;77;21563;-33
2021/10/15 14:38:57;;;;;;;10.40;2.83;;;23.80;40.40;;;;;;1850918;77;21136;-32
2021/10/15 14:41:25;;;;;;;17.00;3.02;;;23.90;40.60;;;;;;1850901;77;21034;-32
2021/10/15 14:43:53;;;;;;;15.30;3.77;;;23.80;40.70;;;;;;1851189;77;21467;-33
2021/10/15 14:46:20;;;;;;;11.45;2.52;;;23.80;41.00;;;;;;1850919;77;21120;-34
2021/10/15 14:48:48;;;;;;;11.75;2.75;;;23.80;40.90;;;;;;1850917;77;21124;-34
2021/10/15 14:51:16;;;;;;;12.03;2.62;;;23.90;40.80;;;;;;1851120;77;21054;-33
2021/10/15 14:53:43;;;;;;;11.33;2.77;;;23.90;40.60;;;;;;1851076;77;21014;-33
2021/10/15 14:56:11;;;;;;;12.37;3.10;;;23.90;40.80;;;;;;1851122;77;21057;-33
2021/10/15 14:58:40;;;;;;;10.63;2.65;;;23.90;41.00;;;;;;1851086;77;21135;-33
2021/10/15 15:01:09;;;;;;;15.25;2.70;;;23.90;41.00;;;;;;1850859;77;21081;-34
2021/10/15 15:03:37;;;;;;;14.80;2.95;;;23.90;41.00;;;;;;1850942;77;21093;-33
2021/10/15 15:06:05;;;;;;;13.08;3.83;;;24.00;40.90;;;;;;1850919;76;21549;-32
2021/10/15 15:08:35;;;;;;;9.90;2.72;;;23.90;41.00;;;;;;1851018;77;21493;-32
2021/10/15 15:11:02;;;;;;;14.75;3.30;;;24.00;40.90;;;;;;1851093;77;21513;-31
2021/10/15 15:13:30;;;;;;;15.40;3.10;;;24.00;41.10;;;;;;1851049;77;21509;-31
2021/10/15 15:15:58;;;;;;;8.63;2.85;;;23.90;41.20;;;;;;1818500;77;21462;-31
2021/10/15 15:18:26;;;;;;;11.28;2.70;;;24.00;41.10;;;;;;1851048;77;21143;-30
2021/10/15 15:21:00;;;;;;;10.28;2.65;;;24.00;41.10;;;;;;1851046;77;21131;-32
2021/10/15 15:23:23;;;;;;;12.80;2.72;;;24.00;41.10;;;;;;1850114;77;21158;-32
2021/10/15 15:25:51;;;;;;;11.68;2.95;;;23.90;40.80;;;;;;1851084;77;21567;-32
2021/10/15 15:28:18;;;;;;;11.03;2.55;;;23.90;41.00;;;;;;1850986;77;21127;-30
2021/10/15 15:30:46;;;;;;;13.18;2.58;;;24.00;40.90;;;;;;1850864;77;21109;-30
2021/10/15 15:33:16;;;;;;;11.38;2.50;;;23.90;40.50;;;;;;1851003;77;21054;-32
2021/10/15 15:35:45;;;;;;;8.73;2.83;;;23.90;40.40;;;;;;1851090;77;21220;-31
2021/10/15 15:38:12;;;;;;;8.88;2.42;;;23.90;40.40;;;;;;1851007;77;21127;-30
2021/10/15 15:40:40;;;;;;;12.00;2.60;;;23.90;40.30;;;;;;1850992;77;21073;-30
2021/10/15 15:43:09;;;;;;;10.45;2.58;;;23.90;40.40;;;;;;1850949;77;21474;-30
2021/10/15 15:45:40;;;;;;;11.80;2.98;;;23.90;40.30;;;;;;1818879;77;21498;-29
2021/10/15 15:48:09;;;;;;;11.38;2.60;;;23.90;40.30;;;;;;1850544;77;21112;-29
2021/10/15 15:50:38;;;;;;;10.90;2.95;;;23.90;40.40;;;;;;1851405;77;21050;-29
2021/10/15 15:53:07;;;;;;;10.28;2.50;;;23.90;40.70;;;;;;1850971;77;21172;-30
2021/10/15 15:55:35;;;;;;;11.05;2.67;;;23.90;40.40;;;;;;1850930;77;21060;-32
2021/10/15 15:58:03;;;;;;;9.08;2.55;;;23.80;40.40;;;;;;1851062;77;21029;-30
2021/10/15 16:00:30;;;;;;;14.13;2.90;;;23.80;40.50;;;;;;1851047;77;21549;-31
2021/10/15 16:02:57;;;;;;;13.45;2.92;;;23.90;40.70;;;;;;1850947;77;21478;-30
2021/10/15 16:05:27;;;;;;;12.18;2.30;;;23.90;40.60;;;;;;1850900;77;21050;-31
2021/10/15 16:07:54;;;;;;;9.43;2.55;;;23.90;40.80;;;;;;1850769;76;21471;-31
2021/10/15 16:10:22;;;;;;;10.18;2.60;;;23.80;40.60;;;;;;1851000;77;21545;-29
2021/10/15 16:12:49;;;;;;;8.93;2.30;;;23.70;40.70;;;;;;1851012;77;21113;-31
2021/10/15 16:15:17;;;;;;;9.13;2.37;;;23.70;41.40;;;;;;1850893;77;21186;-33
2021/10/15 16:17:44;;;;;;;11.78;2.87;;;23.70;40.70;;;;;;1850960;77;21131;-30
2021/10/15 16:20:12;;;;;;;10.90;2.87;;;23.70;40.80;;;;;;1850927;77;21537;-30
2021/10/15 16:22:39;;;;;;;11.57;2.77;;;23.80;40.50;;;;;;1841347;77;21097;-31
2021/10/15 16:25:08;;;;;;;8.88;2.62;;;23.80;40.50;;;;;;1829134;78;21533;-31
2021/10/15 16:27:36;;;;;;;11.80;2.95;;;23.70;40.20;;;;;;1829278;78;21600;-30
2021/10/15 16:30:06;;;;;;;10.90;2.42;;;23.70;40.20;;;;;;1829325;78;21475;-30
2021/10/15 16:32:35;;;;;;;9.88;2.27;;;23.70;40.30;;;;;;1829434;78;21038;-30
2021/10/15 16:35:03;;;;;;;10.72;2.33;;;23.70;40.40;;;;;;1829262;78;21014;-30
2021/10/15 16:37:32;;;;;;;8.83;2.45;;;23.70;40.40;;;;;;1829328;78;21549;-31
2021/10/15 16:40:00;;;;;;;10.25;2.50;;;23.70;40.40;;;;;;1829388;78;21066;-30
2021/10/15 16:42:27;;;;;;;11.63;3.15;;;23.70;40.60;;;;;;1829208;77;21546;-31
2021/10/15 16:44:55;;;;;;;10.55;2.52;;;23.70;40.60;;;;;;1829085;78;21052;-31
2021/10/15 16:47:22;;;;;;;7.05;2.20;;;23.70;40.60;;;;;;1829358;77;21533;-31
2021/10/15 16:49:50;;;;;;;7.97;2.58;;;23.70;40.60;;;;;;1829200;78;21054;-29
2021/10/15 16:52:17;;;;;;;8.20;2.35;;;23.70;40.70;;;;;;1829409;77;21085;-29
2021/10/15 16:54:47;;;;;;;5.90;2.30;;;23.70;40.90;;;;;;1829215;78;21136;-31
2021/10/15 16:57:15;;;;;;;10.85;2.62;;;23.70;40.80;;;;;;1828998;78;21148;-30
2021/10/15 16:59:43;;;;;;;9.60;2.58;;;23.70;41.00;;;;;;1829499;78;21501;-30
2021/10/15 17:02:11;;;;;;;10.88;2.62;;;23.70;41.00;;;;;;1829144;78;21164;-29
2021/10/15 17:04:38;;;;;;;8.53;2.75;;;23.70;40.90;;;;;;1829176;78;21069;-31
2021/10/15 17:07:06;;;;;;;7.58;2.20;;;23.70;40.80;;;;;;1829157;77;21562;-29
2021/10/15 17:09:34;;;;;;;9.78;2.22;;;23.70;40.90;;;;;;1829517;78;21520;-29
2021/10/15 17:12:02;;;;;;;9.10;2.08;;;23.70;40.90;;;;;;1829280;78;21076;-31
2021/10/15 17:14:29;;;;;;;8.45;2.58;;;23.60;40.70;;;;;;1829265;78;21061;-31
2021/10/15 17:16:57;;;;;;;7.05;2.25;;;23.70;40.80;;;;;;1829282;78;21121;-29
2021/10/15 17:19:24;;;;;;;9.88;2.42;;;23.70;40.90;;;;;;1829253;78;21060;-30
2021/10/15 17:21:52;;;;;;;9.68;2.40;;;23.60;40.70;;;;;;1829269;77;21525;-30
2021/10/15 17:24:19;;;;;;;13.68;2.62;;;23.60;40.80;;;;;;1829162;77;21620;-30
2021/10/15 17:26:47;;;;;;;8.45;2.37;;;23.60;40.70;;;;;;1829242;78;21577;-30
2021/10/15 17:29:14;;;;;;;12.30;3.02;;;23.60;40.70;;;;;;1829415;78;21054;-31
2021/10/15 17:31:42;;;;;;;8.73;1.98;;;23.60;40.80;;;;;;1829177;77;21556;-29
2021/10/15 17:34:09;;;;;;;8.90;2.15;;;23.70;40.80;;;;;;1829148;77;21041;-31
2021/10/15 17:36:37;;;;;;;8.23;2.20;;;23.60;40.80;;;;;;1829285;78;21101;-31
2021/10/15 17:39:04;;;;;;;9.90;2.15;;;23.60;40.70;;;;;;1829345;78;21120;-31
2021/10/15 17:41:32;;;;;;;9.30;2.75;;;23.60;40.60;;;;;;1829289;78;21506;-29
2021/10/15 17:43:59;;;;;;;7.62;2.40;;;23.70;40.80;;;;;;1829208;78;21521;-29
2021/10/15 17:46:27;;;;;;;7.17;2.60;;;23.60;40.80;;;;;;1829297;77;21525;-29
2021/10/15 17:48:54;;;;;;;9.20;2.58;;;23.70;40.90;;;;;;1829171;78;21073;-29
2021/10/15 17:51:22;;;;;;;8.25;2.77;;;23.60;40.70;;;;;;1829254;78;21495;-35
2021/10/15 17:53:50;;;;;;;6.58;2.37;;;23.60;40.60;;;;;;1829242;78;21509;-30
2021/10/15 17:56:17;;;;;;;8.60;2.22;;;23.60;40.80;;;;;;1829268;78;21455;-30
2021/10/15 17:58:45;;;;;;;10.18;2.47;;;23.60;40.70;;;;;;1829301;78;21536;-30
2021/10/15 18:01:12;;;;;;;9.68;2.80;;;23.60;40.70;;;;;;1829174;77;21061;-30
2021/10/15 18:03:40;;;;;;;10.82;2.92;;;23.60;40.70;;;;;;1829113;78;21041;-29
2021/10/15 18:06:08;;;;;;;8.33;2.33;;;23.50;40.60;;;;;;1829164;77;21077;-28
2021/10/15 18:08:35;;;;;;;12.35;2.70;;;23.50;40.60;;;;;;1829329;78;21499;-29
2021/10/15 18:11:03;;;;;;;11.05;2.98;;;23.50;40.70;;;;;;1829290;78;21131;-30
2021/10/15 18:13:30;;;;;;;11.83;2.87;;;23.50;40.80;;;;;;1829410;78;21523;-30
2021/10/15 18:15:58;;;;;;;14.68;2.95;;;23.50;40.80;;;;;;1829409;78;21486;-29
2021/10/15 18:18:25;;;;;;;13.13;2.95;;;23.40;41.00;;;;;;1829315;78;21056;-29
2021/10/15 18:20:52;;;;;;;14.10;2.70;;;23.50;41.00;;;;;;1829398;78;21580;-30
2021/10/15 18:23:20;;;;;;;13.58;3.10;;;23.50;40.90;;;;;;1836404;77;21140;-30
2021/10/15 18:25:47;;;;;;;12.65;3.02;;;23.50;41.00;;;;;;1851255;77;21525;-30
2021/10/15 18:28:15;;;;;;;8.20;2.60;;;23.50;40.90;;;;;;1851014;77;21086;-30
2021/10/15 18:30:43;;;;;;;10.38;2.83;;;23.50;41.10;;;;;;1851128;77;21562;-30
2021/10/15 18:33:10;;;;;;;13.28;3.45;;;23.50;40.90;;;;;;1851141;77;21084;-28
2021/10/15 18:35:38;;;;;;;12.13;2.98;;;23.50;40.80;;;;;;1851061;77;21545;-31
2021/10/15 18:38:06;;;;;;;10.13;2.62;;;23.50;41.20;;;;;;1851013;77;21132;-30
2021/10/15 18:40:33;;;;;;;8.93;2.83;;;23.50;41.00;;;;;;1851036;77;21528;-30
2021/10/15 18:43:01;;;;;;;8.65;2.30;;;23.40;40.90;;;;;;1850884;77;21524;-31
2021/10/15 18:45:28;;;;;;;12.25;3.10;;;23.40;40.90;;;;;;1851162;77;21485;-29
2021/10/15 18:47:59;;;;;;;10.75;3.27;;;23.40;41.00;;;;;;1851141;77;21037;-30
2021/10/15 18:50:25;;;;;;;8.53;2.65;;;23.40;40.80;;;;;;1850613;77;21135;-31
2021/10/15 18:52:52;;;;;;;11.15;3.33;;;23.40;40.60;;;;;;1851152;77;21510;-31
2021/10/15 18:55:20;;;;;;;11.43;2.47;;;23.40;40.60;;;;;;1850998;77;21049;-31
2021/10/15 18:57:47;;;;;;;10.95;3.00;;;23.40;40.80;;;;;;1851162;77;21490;-30
2021/10/15 19:00:16;;;;;;;10.03;2.87;;;23.40;40.90;;;;;;1851133;77;21435;-31
2021/10/15 19:02:43;;;;;;;9.18;2.70;;;23.40;41.10;;;;;;1851150;77;21178;-30
2021/10/15 19:05:11;;;;;;;15.00;3.00;;;23.40;41.00;;;;;;1851161;77;21589;-31
2021/10/15 19:07:39;;;;;;;8.90;2.80;;;23.40;40.90;;;;;;1850936;76;21463;-31
2021/10/15 19:10:08;;;;;;;10.55;2.90;;;23.40;40.80;;;;;;1851209;77;21602;-30
2021/10/15 19:12:35;;;;;;;12.63;3.02;;;23.40;40.90;;;;;;1851022;77;21501;-29
2021/10/15 19:15:03;;;;;;;12.43;2.90;;;23.40;40.90;;;;;;1851130;77;21526;-30
2021/10/15 19:17:31;;;;;;;8.63;2.45;;;23.30;40.80;;;;;;1851029;77;21058;-29
2021/10/15 19:19:59;;;;;;;13.90;3.15;;;23.40;40.90;;;;;;1851144;77;21076;-30
2021/10/15 19:22:30;;;;;;;9.48;2.40;;;23.30;40.90;;;;;;1850964;77;21116;-29
2021/10/15 19:24:57;;;;;;;12.25;3.25;;;23.40;40.90;;;;;;1857465;77;21104;-29
2021/10/15 19:27:26;;;;;;;12.47;3.15;;;23.30;40.80;;;;;;1860221;77;21092;-30
2021/10/15 19:29:54;;;;;;;12.40;3.12;;;23.40;40.90;;;;;;1859939;77;21498;-30
2021/10/15 19:32:22;;;;;;;6.33;2.45;;;23.30;40.80;;;;;;1859950;77;21516;-30
2021/10/15 19:34:49;;;;;;;12.05;3.22;;;23.40;40.80;;;;;;1859940;77;21505;-30
2021/10/15 19:37:17;;;;;;;11.48;2.50;;;23.40;40.80;;;;;;1859902;77;21116;-29
2021/10/15 19:39:45;;;;;;;8.75;2.22;;;23.40;41.60;;;;;;1859988;77;21536;-30
2021/10/15 19:42:14;;;;;;;9.20;2.77;;;23.40;40.90;;;;;;1859930;77;21572;-30
2021/10/15 19:44:42;;;;;;;12.40;3.22;;;23.30;40.70;;;;;;1860156;77;21060;-30
2021/10/15 19:47:09;;;;;;;8.20;2.15;;;23.40;40.70;;;;;;1859941;77;21069;-31
2021/10/15 19:49:37;;;;;;;11.50;3.00;;;23.30;40.60;;;;;;1860044;77;21560;-30
2021/10/15 19:52:04;;;;;;;8.98;2.70;;;23.30;40.70;;;;;;1859890;77;21125;-30
2021/10/15 19:54:33;;;;;;;9.68;2.62;;;23.30;40.70;;;;;;1860032;77;21455;-30
2021/10/15 19:57:00;;;;;;;11.45;2.90;;;23.30;40.90;;;;;;1860156;77;21053;-31
2021/10/15 19:59:28;;;;;;;11.48;3.12;;;23.30;41.00;;;;;;1860092;77;21596;-30
2021/10/15 20:01:55;;;;;;;11.38;3.52;;;23.30;40.60;;;;;;1859994;77;21517;-30
2021/10/15 20:04:23;;;;;;;12.82;3.58;;;23.30;40.70;;;;;;1859946;77;21080;-31
2021/10/15 20:06:51;;;;;;;13.28;3.67;;;23.30;40.60;;;;;;1860025;76;21545;-32
2021/10/15 20:09:18;;;;;;;11.55;3.55;;;23.30;40.60;;;;;;1860086;77;21526;-30
2021/10/15 20:11:46;;;;;;;10.70;2.80;;;23.30;40.80;;;;;;1859961;77;21139;-31
2021/10/15 20:14:13;;;;;;;12.37;3.00;;;23.30;41.00;;;;;;1859933;77;21571;-29
2021/10/15 20:16:41;;;;;;;10.98;2.90;;;23.20;40.70;;;;;;1860134;77;21150;-31
2021/10/15 20:19:09;;;;;;;9.30;2.58;;;23.20;40.80;;;;;;1860020;77;21486;-30
2021/10/15 20:21:36;;;;;;;11.55;2.85;;;23.20;41.00;;;;;;1860145;77;21533;-31
2021/10/15 20:24:04;;;;;;;9.65;3.50;;;23.20;41.00;;;;;;1859938;77;21070;-30
2021/10/15 20:26:32;;;;;;;13.80;3.42;;;23.20;41.30;;;;;;1859925;77;21111;-30
2021/10/15 20:29:01;;;;;;;14.87;3.33;;;23.20;41.00;;;;;;1860057;77;21089;-30
2021/10/15 20:31:28;;;;;;;24.35;3.77;;;23.20;41.10;;;;;;1859978;77;21525;-29
2021/10/15 20:33:56;;;;;;;15.20;2.45;;;23.20;41.00;;;;;;1859945;77;21057;-32
2021/10/15 20:36:23;;;;;;;9.83;3.10;;;23.20;40.90;;;;;;1860024;77;21077;-30
2021/10/15 20:38:51;;;;;;;10.75;2.83;;;23.20;40.90;;;;;;1860105;77;21154;-31
2021/10/15 20:41:22;;;;;;;10.20;2.70;;;23.20;41.00;;;;;;1859859;77;21146;-31
2021/10/15 20:43:47;;;;;;;9.95;3.05;;;23.20;41.30;;;;;;1859431;77;21089;-30
2021/10/15 20:46:15;;;;;;;8.38;2.50;;;23.10;40.60;;;;;;1859986;77;21529;-30
2021/10/15 20:48:42;;;;;;;10.88;2.25;;;23.10;40.60;;;;;;1860021;77;21177;-31
2021/10/15 20:51:10;;;;;;;12.28;3.02;;;23.10;40.70;;;;;;1859992;77;21120;-30
2021/10/15 20:53:37;;;;;;;7.20;2.20;;;23.10;40.90;;;;;;1860128;77;21497;-30
2021/10/15 20:56:07;;;;;;;8.38;2.60;;;23.00;40.90;;;;;;1860007;77;21536;-29
2021/10/15 20:58:36;;;;;;;9.20;2.87;;;23.00;40.90;;;;;;1859930;77;21092;-31
2021/10/15 21:01:04;;;;;;;14.10;2.55;;;23.00;40.90;;;;;;1859978;77;21191;-29
2021/10/15 21:03:31;;;;;;;8.53;2.22;;;23.00;40.90;;;;;;1859987;77;21050;-31
2021/10/15 21:05:58;;;;;;;33.45;4.65;;;23.00;40.90;;;;;;1860141;76;21458;-31
2021/10/15 21:08:28;;;;;;;30.00;4.60;;;23.00;41.10;;;;;;1860035;77;21026;-29
2021/10/15 21:10:55;;;;;;;22.67;3.72;;;22.90;41.30;;;;;;1860184;77;21088;-29
2021/10/15 21:13:23;;;;;;;22.65;4.35;;;22.90;41.60;;;;;;1859990;77;21080;-29
2021/10/15 21:15:50;;;;;;;17.40;2.95;;;22.90;41.70;;;;;;1860073;77;21537;-30
2021/10/15 21:18:17;;;;;;;14.47;3.22;;;22.90;41.90;;;;;;1859994;77;21205;-30
2021/10/15 21:20:45;;;;;;;10.30;3.20;;;22.90;42.00;;;;;;1860177;77;21549;-29
2021/10/15 21:23:12;;;;;;;14.18;3.30;;;22.90;42.10;;;;;;1860020;77;21085;-31
2021/10/15 21:25:40;;;;;;;12.23;3.17;;;22.90;42.10;;;;;;1860057;77;21628;-30
2021/10/15 21:28:08;;;;;;;13.80;3.35;;;22.90;42.20;;;;;;1859980;77;21545;-30
2021/10/15 21:30:36;;;;;;;8.90;3.20;;;22.90;42.20;;;;;;1860008;77;21089;-31
2021/10/15 21:33:04;;;;;;;15.23;3.22;;;22.90;42.20;;;;;;1859998;77;21162;-31
2021/10/15 21:35:32;;;;;;;10.82;3.33;;;22.90;42.10;;;;;;1860002;77;21088;-32
2021/10/15 21:37:59;;;;;;;11.35;4.10;;;22.90;41.80;;;;;;1860107;77;21518;-31
2021/10/15 21:40:27;;;;;;;9.63;2.80;;;22.90;41.70;;;;;;1860018;77;21226;-31
2021/10/15 21:42:54;;;;;;;10.18;2.77;;;22.90;41.60;;;;;;1860025;77;21194;-29
2021/10/15 21:45:22;;;;;;;10.90;3.20;;;23.00;41.60;;;;;;1860099;77;21140;-31
2021/10/15 21:47:49;;;;;;;11.97;3.08;;;23.00;41.50;;;;;;1860189;77;21595;-30
2021/10/15 21:50:22;;;;;;;8.43;3.20;;;23.00;41.40;;;;;;1860123;77;21198;-29
2021/10/15 21:52:46;;;;;;;9.65;2.58;;;23.00;41.40;;;;;;1859189;77;21092;-29
2021/10/15 21:55:14;;;;;;;8.33;3.42;;;23.00;41.50;;;;;;1860091;77;21545;-30
2021/10/15 21:57:41;;;;;;;10.38;3.12;;;23.00;41.40;;;;;;1860214;77;21540;-30
2021/10/15 22:00:11;;;;;;;10.72;3.33;;;23.10;41.60;;;;;;1860296;77;21548;-31
2021/10/15 22:02:38;;;;;;;13.28;3.50;;;23.00;41.50;;;;;;1859775;77;21159;-31
2021/10/15 22:05:08;;;;;;;11.53;3.47;;;23.00;41.70;;;;;;1860196;77;21470;-30
2021/10/15 22:07:35;;;;;;;10.30;3.30;;;23.10;41.90;;;;;;1860122;76;21529;-30
2021/10/15 22:10:04;;;;;;;15.03;3.95;;;23.10;42.10;;;;;;1860150;77;21629;-30
2021/10/15 22:12:32;;;;;;;15.72;4.20;;;23.00;42.30;;;;;;1860183;77;21490;-30
2021/10/15 22:15:00;;;;;;;17.55;4.97;;;23.00;42.50;;;;;;1860248;77;21502;-29
2021/10/15 22:17:28;;;;;;;13.45;3.87;;;23.00;42.50;;;;;;1860079;77;21131;-30
2021/10/15 22:19:55;;;;;;;20.15;4.65;;;23.00;42.90;;;;;;1860198;77;21068;-30
2021/10/15 22:22:23;;;;;;;42.98;5.85;;;23.00;43.10;;;;;;1860072;77;21080;-30
2021/10/15 22:24:50;;;;;;;30.00;5.75;;;23.00;43.30;;;;;;1856289;77;21173;-30
2021/10/15 22:27:18;;;;;;;18.87;4.92;;;23.00;43.50;;;;;;1829540;78;21599;-30
2021/10/15 22:29:46;;;;;;;18.05;4.97;;;23.00;43.60;;;;;;1829447;78;21084;-30
2021/10/15 22:32:13;;;;;;;16.42;5.92;;;23.00;44.10;;;;;;1829503;78;21525;-29
2021/10/15 22:34:41;;;;;;;13.58;5.08;;;23.00;44.30;;;;;;1829532;78;21582;-31
2021/10/15 22:37:08;;;;;;;16.17;5.35;;;22.90;44.20;;;;;;1829448;78;21540;-30
2021/10/15 22:39:36;;;;;;;15.93;5.33;;;23.00;44.60;;;;;;1829522;78;21529;-30
2021/10/15 22:42:04;;;;;;;16.80;5.80;;;23.00;44.90;;;;;;1829454;78;21147;-29
2021/10/15 22:44:31;;;;;;;17.52;5.90;;;23.00;44.40;;;;;;1829381;78;21073;-29
2021/10/15 22:46:59;;;;;;;15.63;5.47;;;22.90;44.40;;;;;;1829388;78;21108;-29
2021/10/15 22:49:26;;;;;;;16.15;5.28;;;23.00;44.40;;;;;;1829571;78;21030;-30
2021/10/15 22:51:54;;;;;;;15.23;5.78;;;22.90;44.80;;;;;;1829422;78;21084;-30
2021/10/15 22:54:21;;;;;;;17.23;5.62;;;23.00;44.70;;;;;;1829387;78;21077;-29
2021/10/15 22:56:49;;;;;;;12.93;5.10;;;23.00;44.40;;;;;;1829404;78;21123;-30
2021/10/15 22:59:17;;;;;;;156.75;14.58;;;22.90;43.90;;;;;;1829501;78;21932;-31
2021/10/15 23:01:44;;;;;;;60.10;10.13;;;22.90;44.10;;;;;;1829480;78;21147;-29
2021/10/15 23:04:13;;;;;;;25.82;6.33;;;23.00;46.10;;;;;;1829411;78;21072;-30
2021/10/15 23:06:43;;;;;;;31.62;6.87;;;23.00;46.40;;;;;;1829336;77;21575;-31
2021/10/15 23:09:10;;;;;;;22.13;5.95;;;22.90;47.10;;;;;;1829464;78;21542;-30
2021/10/15 23:11:38;;;;;;;59.75;9.63;;;22.90;47.80;;;;;;1829419;78;21141;-31
2021/10/15 23:14:05;;;;;;;19.60;7.15;;;22.90;48.40;;;;;;1829501;77;21534;-31
2021/10/15 23:16:33;;;;;;;20.08;7.10;;;22.90;48.90;;;;;;1829518;78;21545;-31
2021/10/15 23:19:00;;;;;;;22.27;6.90;;;22.90;49.10;;;;;;1829341;78;21182;-31
2021/10/15 23:21:28;;;;;;;25.40;6.70;;;22.90;49.30;;;;;;1829517;78;21490;-30
2021/10/15 23:23:55;;;;;;;20.08;6.60;;;22.90;47.60;;;;;;1829351;78;21046;-31
2021/10/15 23:26:23;;;;;;;17.55;6.80;;;22.90;47.20;;;;;;1841221;77;21077;-30
2021/10/15 23:28:50;;;;;;;28.05;7.17;;;22.90;47.00;;;;;;1851207;77;21607;-31
2021/10/15 23:31:18;;;;;;;18.37;6.45;;;22.90;46.80;;;;;;1851071;77;21097;-30
2021/10/15 23:33:45;;;;;;;25.32;7.37;;;22.90;46.60;;;;;;1851168;77;21089;-30
2021/10/15 23:36:13;;;;;;;21.68;6.83;;;22.90;46.60;;;;;;1851183;77;21129;-30
2021/10/15 23:38:40;;;;;;;21.70;7.60;;;22.80;46.70;;;;;;1851095;77;21170;-29
2021/10/15 23:41:07;;;;;;;18.17;8.00;;;22.80;46.90;;;;;;1851293;77;21538;-30
2021/10/15 23:43:35;;;;;;;19.52;7.40;;;22.80;47.50;;;;;;1851265;77;21062;-30
2021/10/15 23:46:04;;;;;;;20.25;8.70;;;22.80;46.80;;;;;;1851091;77;21080;-30
2021/10/15 23:48:31;;;;;;;18.90;7.87;;;22.80;47.90;;;;;;1851203;77;21522;-31
2021/10/15 23:50:59;;;;;;;20.82;7.90;;;22.80;46.40;;;;;;1851177;77;21525;-30
2021/10/15 23:53:26;;;;;;;21.82;8.43;;;22.80;46.40;;;;;;1851115;77;21135;-31
2021/10/15 23:55:54;;;;;;;19.92;7.90;;;22.80;46.30;;;;;;1851120;77;21060;-30
2021/10/15 23:58:21;;;;;;;21.52;8.95;;;22.80;46.20;;;;;;1851072;77;21081;-33
